createdAt,value
2022-09-30T00:02:54.860Z,6.02
2022-09-30T00:06:08.787Z,5.97
2022-09-30T00:09:16.536Z,6.00
2022-09-30T00:12:23.451Z,6.00
2022-09-30T00:15:29.179Z,6.07
2022-09-30T00:18:36.956Z,6.12
2022-09-30T00:21:46.390Z,5.99
2022-09-30T00:24:52.041Z,6.01
2022-09-30T00:27:57.642Z,6.02
2022-09-30T00:31:06.179Z,6.05
2022-09-30T00:34:12.483Z,6.07
2022-09-30T00:37:20.845Z,6.20
2022-09-30T00:40:26.785Z,6.23
2022-09-30T00:43:53.611Z,6.29
2022-09-30T00:47:00.171Z,6.34
2022-09-30T00:50:18.273Z,6.32
2022-09-30T00:53:33.545Z,6.34
2022-09-30T00:56:49.637Z,6.30
2022-09-30T00:59:56.104Z,6.46
2022-09-30T01:03:02.037Z,6.57
2022-09-30T01:06:08.559Z,6.65
2022-09-30T01:09:17.325Z,6.68
2022-09-30T01:12:29.323Z,6.63
2022-09-30T01:15:55.811Z,6.66
2022-09-30T01:19:32.507Z,6.64
2022-09-30T01:22:54.973Z,6.69
2022-09-30T01:26:54.925Z,6.61
2022-09-30T01:30:23.555Z,6.67
2022-09-30T01:33:49.656Z,6.74
2022-09-30T01:37:12.708Z,6.82
2022-09-30T01:40:30.774Z,6.84
2022-09-30T01:44:00.777Z,6.93
2022-09-30T01:47:18.572Z,6.82
2022-09-30T01:50:43.355Z,6.89
2022-09-30T01:54:06.595Z,6.88
2022-09-30T01:57:24.114Z,6.60
2022-09-30T02:00:33.306Z,6.62
2022-09-30T02:03:50.458Z,6.66
2022-09-30T02:07:07.955Z,6.52
2022-09-30T02:10:39.647Z,6.60
2022-09-30T02:13:54.361Z,6.70
2022-09-30T02:17:08.712Z,6.75
2022-09-30T02:20:24.195Z,6.67
2022-09-30T02:23:41.149Z,6.68
2022-09-30T02:26:54.374Z,6.72
2022-09-30T02:30:09.476Z,6.82
2022-09-30T02:33:23.203Z,6.81
2022-09-30T02:36:45.176Z,6.94
2022-09-30T02:40:05.442Z,7.06
2022-09-30T02:43:13.759Z,7.11
2022-09-30T02:46:37.334Z,7.11
2022-09-30T02:49:52.627Z,7.19
2022-09-30T02:53:21.743Z,7.22
2022-09-30T02:56:49.649Z,7.22
2022-09-30T02:59:56.599Z,7.26
2022-09-30T03:03:13.093Z,7.16
2022-09-30T03:06:19.863Z,7.20
2022-09-30T03:09:29.846Z,7.32
2022-09-30T03:13:03.119Z,7.16
2022-09-30T03:16:31.220Z,7.18
2022-09-30T03:20:13.372Z,7.18
2022-09-30T03:24:15.395Z,7.30
2022-09-30T03:27:40.573Z,7.33
2022-09-30T03:31:06.890Z,7.29
2022-09-30T03:34:28.223Z,7.34
2022-09-30T03:37:49.820Z,7.33
2022-09-30T03:41:11.892Z,7.40
2022-09-30T03:44:27.593Z,7.41
2022-09-30T03:47:47.469Z,7.32
2022-09-30T03:50:54.307Z,7.33
2022-09-30T03:54:02.367Z,7.29
2022-09-30T03:57:10.246Z,7.32
2022-09-30T04:00:17.381Z,7.32
2022-09-30T04:03:26.640Z,7.49
2022-09-30T04:06:32.245Z,7.52
2022-09-30T04:09:37.952Z,7.39
2022-09-30T04:12:43.640Z,7.29
2022-09-30T04:15:57.995Z,7.15
2022-09-30T04:19:11.459Z,7.27
2022-09-30T04:22:17.055Z,7.33
2022-09-30T04:25:22.750Z,7.34
2022-09-30T04:28:28.327Z,7.40
2022-09-30T04:31:33.985Z,7.34
2022-09-30T04:34:42.212Z,7.26
2022-09-30T04:37:51.305Z,7.33
2022-09-30T04:40:58.889Z,7.24
2022-09-30T04:44:07.368Z,7.30
2022-09-30T04:47:13.303Z,7.28
2022-09-30T04:50:21.507Z,7.34
2022-09-30T04:53:29.503Z,7.31
2022-09-30T04:56:35.167Z,7.31
2022-09-30T04:59:40.708Z,7.36
2022-09-30T05:02:47.618Z,7.46
2022-09-30T05:05:56.373Z,7.53
2022-09-30T05:09:09.783Z,7.39
2022-09-30T05:12:15.925Z,7.37
2022-09-30T05:15:21.594Z,7.40
2022-09-30T05:18:28.177Z,7.44
2022-09-30T05:21:39.295Z,7.47
2022-09-30T05:24:44.927Z,7.45
2022-09-30T05:27:52.154Z,7.51
2022-09-30T05:31:09.922Z,7.61
2022-09-30T05:34:26.201Z,7.73
2022-09-30T05:37:34.449Z,7.65
2022-09-30T05:40:42.291Z,7.67
2022-09-30T05:43:48.253Z,7.80
2022-09-30T05:46:55.719Z,7.90
2022-09-30T05:50:05.885Z,7.98
2022-09-30T05:53:14.564Z,7.91
2022-09-30T05:56:20.299Z,7.91
2022-09-30T05:59:29.208Z,7.72
2022-09-30T06:02:38.671Z,7.93
2022-09-30T06:05:45.803Z,7.93
2022-09-30T06:09:07.949Z,7.90
2022-09-30T06:12:13.617Z,7.90
2022-09-30T06:15:19.525Z,7.94
2022-09-30T06:18:35.441Z,8.07
2022-09-30T06:21:41.013Z,8.09
2022-09-30T06:24:54.860Z,8.09
2022-09-30T06:28:07.125Z,8.14
2022-09-30T06:31:13.272Z,8.22
2022-09-30T06:34:19.847Z,8.28
2022-09-30T06:37:25.725Z,8.45
2022-09-30T06:40:38.997Z,8.42
2022-09-30T06:43:49.474Z,8.28
2022-09-30T06:46:59.038Z,8.30
2022-09-30T06:50:24.744Z,8.32
2022-09-30T06:53:54.619Z,8.49
2022-09-30T06:57:02.825Z,8.57
2022-09-30T07:00:10.798Z,8.64
2022-09-30T07:03:32.193Z,8.69
2022-09-30T07:06:39.209Z,8.64
2022-09-30T07:09:45.474Z,8.65
2022-09-30T07:12:57.273Z,8.63
2022-09-30T07:16:03.599Z,8.70
2022-09-30T07:19:11.338Z,8.59
2022-09-30T07:22:34.603Z,8.76
2022-09-30T07:25:40.309Z,8.58
2022-09-30T07:28:52.448Z,8.71
2022-09-30T07:31:57.965Z,8.80
2022-09-30T07:35:03.663Z,8.92
2022-09-30T07:38:09.993Z,8.88
2022-09-30T07:41:22.067Z,8.91
2022-09-30T07:44:30.287Z,8.70
2022-09-30T07:47:35.743Z,8.56
2022-09-30T07:50:45.555Z,8.50
2022-09-30T07:53:54.828Z,8.55
2022-09-30T07:57:10.139Z,8.72
2022-09-30T08:00:41.216Z,8.87
2022-09-30T08:03:47.407Z,8.80
2022-09-30T08:06:57.398Z,8.78
2022-09-30T08:10:03.096Z,8.55
2022-09-30T08:13:08.584Z,8.62
2022-09-30T08:16:16.803Z,8.63
2022-09-30T08:19:25.615Z,8.68
2022-09-30T08:22:31.332Z,8.77
2022-09-30T08:25:40.055Z,8.78
2022-09-30T08:28:48.493Z,8.83
2022-09-30T08:31:57.808Z,8.84
2022-09-30T08:35:03.499Z,8.78
2022-09-30T08:38:15.570Z,8.76
2022-09-30T08:41:52.796Z,8.72
2022-09-30T08:45:19.410Z,8.58
2022-09-30T08:48:49.117Z,8.82
2022-09-30T08:51:57.253Z,8.97
2022-09-30T08:55:07.967Z,9.01
2022-09-30T08:58:31.473Z,9.12
2022-09-30T09:01:43.031Z,8.99
2022-09-30T09:04:55.103Z,9.02
2022-09-30T09:08:16.100Z,9.02
2022-09-30T09:11:46.403Z,9.17
2022-09-30T09:15:24.163Z,9.21
2022-09-30T09:18:48.811Z,9.19
2022-09-30T09:22:06.219Z,9.25
2022-09-30T09:25:22.057Z,9.28
2022-09-30T09:28:39.477Z,9.19
2022-09-30T09:31:45.239Z,9.29
2022-09-30T09:35:05.389Z,9.31
2022-09-30T09:38:36.190Z,9.13
2022-09-30T09:41:57.829Z,9.27
2022-09-30T09:45:11.409Z,9.23
2022-09-30T09:48:17.694Z,9.27
2022-09-30T09:51:36.323Z,9.41
2022-09-30T09:54:46.993Z,9.28
2022-09-30T09:58:09.999Z,9.34
2022-09-30T10:01:32.603Z,9.41
2022-09-30T10:04:51.286Z,9.66
2022-09-30T10:08:18.745Z,9.62
2022-09-30T10:11:31.285Z,9.66
2022-09-30T10:14:46.412Z,9.80
2022-09-30T10:18:02.636Z,9.81
2022-09-30T10:21:24.223Z,9.86
2022-09-30T10:24:33.703Z,9.83
2022-09-30T10:27:56.969Z,10.05
2022-09-30T10:31:09.418Z,10.11
2022-09-30T10:34:29.338Z,10.08
2022-09-30T10:37:35.793Z,10.11
2022-09-30T10:40:41.405Z,10.07
2022-09-30T10:43:58.225Z,10.04
2022-09-30T10:47:07.054Z,9.89
2022-09-30T10:50:28.534Z,9.91
2022-09-30T10:53:45.755Z,9.86
2022-09-30T10:56:56.179Z,9.82
2022-09-30T11:00:09.589Z,9.92
2022-09-30T11:03:30.203Z,9.98
2022-09-30T11:06:41.585Z,10.03
2022-09-30T11:10:01.556Z,10.03
2022-09-30T11:13:20.383Z,9.93
2022-09-30T11:16:44.060Z,9.97
2022-09-30T11:20:05.076Z,10.06
2022-09-30T11:23:25.002Z,10.14
2022-09-30T11:26:50.965Z,10.07
2022-09-30T11:30:13.682Z,9.96
2022-09-30T11:33:51.195Z,10.10
2022-09-30T11:37:13.961Z,10.12
2022-09-30T11:40:40.057Z,10.12
2022-09-30T11:44:05.816Z,10.06
2022-09-30T11:47:56.977Z,10.04
2022-09-30T11:51:23.179Z,10.12
2022-09-30T11:54:55.638Z,10.05
2022-09-30T11:58:36.258Z,9.98
2022-09-30T12:01:44.163Z,9.95
2022-09-30T12:04:54.961Z,10.05
2022-09-30T12:08:15.807Z,10.06
2022-09-30T12:11:45.394Z,10.21
2022-09-30T12:14:58.480Z,10.35
2022-09-30T12:18:12.550Z,10.38
2022-09-30T12:21:27.417Z,10.43
2022-09-30T12:24:41.395Z,10.60
2022-09-30T12:28:00.501Z,10.64
2022-09-30T12:31:41.334Z,10.72
2022-09-30T12:35:17.986Z,10.67
2022-09-30T12:38:59.163Z,10.69
2022-09-30T12:42:36.360Z,10.80
2022-09-30T12:46:12.750Z,10.93
2022-09-30T12:49:29.890Z,11.00
2022-09-30T12:52:39.160Z,10.96
2022-09-30T12:55:46.445Z,10.67
2022-09-30T12:58:57.783Z,10.59
2022-09-30T13:02:11.886Z,10.59
2022-09-30T13:05:50.472Z,10.57
2022-09-30T13:09:23.302Z,10.42
2022-09-30T13:12:44.364Z,10.48
2022-09-30T13:15:56.395Z,10.45
2022-09-30T13:19:05.148Z,10.51
2022-09-30T13:22:59.728Z,10.61
2022-09-30T13:26:07.477Z,10.69
2022-09-30T13:29:40.451Z,10.63
2022-09-30T13:33:07.371Z,10.48
2022-09-30T13:36:30.322Z,10.44
2022-09-30T13:39:52.297Z,10.48
2022-09-30T13:43:04.734Z,10.53
2022-09-30T13:46:25.713Z,10.56
2022-09-30T13:49:49.806Z,10.69
2022-09-30T13:53:05.048Z,10.76
2022-09-30T13:56:22.461Z,10.81
2022-09-30T14:00:01.569Z,10.98
2022-09-30T14:03:41.528Z,11.17
2022-09-30T14:07:16.829Z,11.34
2022-09-30T14:10:48.720Z,11.38
2022-09-30T14:14:26.516Z,11.40
2022-09-30T14:18:05.789Z,11.44
2022-09-30T14:21:38.943Z,11.22
2022-09-30T14:24:47.278Z,11.01
2022-09-30T14:28:09.314Z,10.98
2022-09-30T14:31:19.176Z,11.10
2022-09-30T14:34:28.054Z,10.95
2022-09-30T14:37:41.663Z,10.77
2022-09-30T14:40:57.512Z,10.69
2022-09-30T14:44:08.409Z,10.70
2022-09-30T14:47:23.072Z,10.62
2022-09-30T14:50:38.962Z,10.59
2022-09-30T14:53:56.387Z,10.59
2022-09-30T14:57:07.044Z,10.62
2022-09-30T15:00:36.803Z,10.52
2022-09-30T15:03:48.414Z,10.49
2022-09-30T15:06:56.949Z,10.49
2022-09-30T15:10:06.110Z,10.38
2022-09-30T15:13:15.474Z,10.32
2022-09-30T15:16:28.236Z,10.33
2022-09-30T15:19:45.160Z,10.20
2022-09-30T15:22:51.263Z,10.20
2022-09-30T15:25:58.210Z,10.27
2022-09-30T15:29:08.125Z,10.29
2022-09-30T15:32:24.254Z,10.29
2022-09-30T15:35:33.425Z,10.09
2022-09-30T15:38:41.825Z,10.12
2022-09-30T15:41:51.482Z,10.07
2022-09-30T15:45:03.045Z,10.11
2022-09-30T15:48:29.515Z,10.07
2022-09-30T15:51:42.036Z,9.95
2022-09-30T15:54:48.239Z,9.97
2022-09-30T15:57:54.379Z,10.02
2022-09-30T16:01:19.845Z,9.80
2022-09-30T16:04:28.788Z,9.76
2022-09-30T16:07:35.950Z,9.83
2022-09-30T16:10:41.642Z,10.00
2022-09-30T16:13:49.908Z,10.08
2022-09-30T16:17:02.928Z,10.03
2022-09-30T16:20:26.299Z,10.13
2022-09-30T16:23:38.124Z,10.19
2022-09-30T16:26:48.360Z,10.10
2022-09-30T16:29:54.032Z,10.10
2022-09-30T16:33:09.132Z,10.14
2022-09-30T16:36:15.965Z,10.21
2022-09-30T16:39:22.311Z,10.18
2022-09-30T16:42:31.398Z,10.24
2022-09-30T16:45:37.762Z,10.20
2022-09-30T16:48:45.987Z,10.22
2022-09-30T16:51:51.496Z,10.32
2022-09-30T16:54:57.193Z,10.24
2022-09-30T16:58:04.853Z,10.10
2022-09-30T17:01:22.793Z,9.92
2022-09-30T17:04:34.802Z,9.91
2022-09-30T17:07:41.637Z,9.93
2022-09-30T17:10:50.443Z,10.03
2022-09-30T17:13:56.104Z,10.09
2022-09-30T17:17:02.064Z,10.15
2022-09-30T17:20:12.205Z,10.13
2022-09-30T17:23:19.777Z,10.11
2022-09-30T17:26:26.039Z,10.03
2022-09-30T17:29:32.950Z,10.08
2022-09-30T17:32:39.144Z,10.09
2022-09-30T17:35:47.418Z,10.15
2022-09-30T17:38:57.672Z,10.17
2022-09-30T17:42:15.729Z,10.14
2022-09-30T17:45:21.351Z,10.18
2022-09-30T17:48:26.950Z,10.03
2022-09-30T17:51:35.595Z,9.87
2022-09-30T17:54:41.353Z,9.96
2022-09-30T17:57:46.965Z,10.01
2022-09-30T18:00:52.576Z,9.85
2022-09-30T18:04:02.421Z,9.80
2022-09-30T18:07:11.327Z,9.80
2022-09-30T18:10:17.381Z,9.85
2022-09-30T18:13:23.133Z,9.73
2022-09-30T18:16:34.153Z,9.69
2022-09-30T18:19:40.186Z,9.68
2022-09-30T18:22:48.912Z,9.78
2022-09-30T18:25:58.698Z,9.98
2022-09-30T18:29:04.546Z,10.02
2022-09-30T18:32:10.717Z,10.04
2022-09-30T18:35:26.895Z,9.90
2022-09-30T18:38:37.155Z,9.98
2022-09-30T18:41:45.802Z,10.03
2022-09-30T18:44:51.933Z,10.02
2022-09-30T18:48:01.022Z,9.89
2022-09-30T18:51:19.078Z,9.84
2022-09-30T18:54:30.106Z,9.80
2022-09-30T18:57:36.092Z,9.77
2022-09-30T19:00:50.092Z,9.79
2022-09-30T19:03:56.130Z,9.70
2022-09-30T19:07:09.120Z,9.73
2022-09-30T19:10:22.497Z,9.74
2022-09-30T19:13:31.668Z,9.62
2022-09-30T19:16:38.945Z,9.72
2022-09-30T19:19:46.103Z,9.72
2022-09-30T19:22:52.177Z,9.83
2022-09-30T19:26:03.684Z,9.68
2022-09-30T19:29:11.390Z,9.56
2022-09-30T19:32:20.604Z,9.66
2022-09-30T19:35:35.980Z,9.70
2022-09-30T19:38:47.388Z,9.55
2022-09-30T19:41:58.057Z,9.60
2022-09-30T19:45:05.768Z,9.57
2022-09-30T19:48:11.436Z,9.77
2022-09-30T19:51:19.437Z,9.71
2022-09-30T19:54:36.647Z,9.49
2022-09-30T19:57:48.395Z,9.53
2022-09-30T20:00:57.420Z,9.68
2022-09-30T20:04:05.545Z,9.67
2022-09-30T20:07:11.388Z,9.78
2022-09-30T20:10:17.257Z,9.87
2022-09-30T20:13:25.655Z,9.87
2022-09-30T20:16:28.753Z,9.84
2022-09-30T20:19:34.340Z,9.78
2022-09-30T20:22:40.093Z,9.57
2022-09-30T20:25:47.741Z,9.59
2022-09-30T20:28:59.333Z,9.72
2022-09-30T20:32:05.401Z,9.74
2022-09-30T20:35:12.333Z,9.77
2022-09-30T20:38:25.171Z,9.73
2022-09-30T20:41:36.074Z,9.60
2022-09-30T20:44:45.563Z,9.50
2022-09-30T20:47:51.200Z,9.42
2022-09-30T20:50:58.739Z,9.34
2022-09-30T20:54:25.225Z,9.40
2022-09-30T20:57:32.617Z,9.23
2022-09-30T21:00:53.099Z,9.04
2022-09-30T21:04:00.317Z,9.02
2022-09-30T21:07:07.176Z,8.92
2022-09-30T21:10:12.955Z,8.89
2022-09-30T21:13:30.619Z,8.94
2022-09-30T21:16:42.802Z,8.93
2022-09-30T21:19:48.519Z,9.06
2022-09-30T21:22:54.084Z,9.14
2022-09-30T21:26:00.651Z,9.02
2022-09-30T21:29:24.042Z,9.13
2022-09-30T21:32:35.445Z,9.14
2022-09-30T21:35:41.000Z,9.26
2022-09-30T21:38:55.100Z,9.33
2022-09-30T21:42:00.763Z,9.35
2022-09-30T21:45:11.527Z,9.35
2022-09-30T21:48:30.112Z,9.31
2022-09-30T21:51:36.309Z,9.51
2022-09-30T21:54:43.163Z,9.54
2022-09-30T21:57:48.890Z,9.70
2022-09-30T22:00:56.020Z,9.76
2022-09-30T22:04:17.220Z,9.72
2022-09-30T22:07:27.961Z,9.65
2022-09-30T22:10:33.831Z,9.48
2022-09-30T22:13:41.046Z,9.52
2022-09-30T22:16:47.493Z,9.58
2022-09-30T22:19:55.831Z,9.59
2022-09-30T22:23:01.515Z,9.59
2022-09-30T22:26:11.718Z,9.68
2022-09-30T22:29:17.264Z,9.54
2022-09-30T22:32:22.861Z,9.51
2022-09-30T22:35:43.383Z,9.54
2022-09-30T22:38:49.217Z,9.48
2022-09-30T22:41:56.297Z,9.52
2022-09-30T22:45:08.217Z,9.29
2022-09-30T22:48:26.317Z,8.93
2022-09-30T22:51:35.403Z,8.65
2022-09-30T22:54:41.193Z,8.42
2022-09-30T22:57:46.714Z,8.42
2022-09-30T23:01:03.215Z,8.34
2022-09-30T23:04:29.959Z,8.37
2022-09-30T23:07:38.063Z,8.45
2022-09-30T23:10:52.400Z,8.45
2022-09-30T23:13:59.288Z,8.28
2022-09-30T23:17:05.201Z,8.37
2022-09-30T23:20:12.211Z,8.60
2022-09-30T23:23:20.373Z,8.61
2022-09-30T23:26:28.836Z,8.58
2022-09-30T23:29:34.358Z,8.63
2022-09-30T23:32:40.390Z,8.87
2022-09-30T23:35:48.731Z,8.99
2022-09-30T23:39:05.195Z,9.14
2022-09-30T23:42:10.672Z,9.22
2022-09-30T23:45:16.461Z,9.24
2022-09-30T23:48:22.019Z,9.17
2022-09-30T23:51:30.802Z,9.24
2022-09-30T23:54:42.031Z,9.22
2022-09-30T23:57:51.321Z,8.99
